sensor_id;sensor_type;location;lat;lon;timestamp;P1;durP1;ratioP1;P2;durP2;ratioP2
13641;SDS011;6894;52.196;9.904;2024-01-16T00:00:32;2.20;;;1.00;;
13641;SDS011;6894;52.196;9.904;2024-01-16T00:02:59;6.10;;;3.73;;
13641;SDS011;6894;52.196;9.904;2024-01-16T00:05:26;1.50;;;1.00;;
13641;SDS011;6894;52.196;9.904;2024-01-16T00:07:52;2.90;;;1.10;;
13641;SDS011;6894;52.196;9.904;2024-01-16T00:10:20;1.83;;;1.10;;
13641;SDS011;6894;52.196;9.904;2024-01-16T00:12:47;1.40;;;0.90;;
13641;SDS011;6894;52.196;9.904;2024-01-16T00:15:13;4.03;;;1.53;;
13641;SDS011;6894;52.196;9.904;2024-01-16T00:17:42;2.50;;;1.27;;
13641;SDS011;6894;52.196;9.904;2024-01-16T00:20:09;2.10;;;1.00;;
13641;SDS011;6894;52.196;9.904;2024-01-16T00:22:36;1.40;;;1.10;;
13641;SDS011;6894;52.196;9.904;2024-01-16T00:25:03;2.97;;;1.03;;
13641;SDS011;6894;52.196;9.904;2024-01-16T00:27:30;1.90;;;0.70;;
13641;SDS011;6894;52.196;9.904;2024-01-16T00:29:57;3.83;;;2.27;;
13641;SDS011;6894;52.196;9.904;2024-01-16T00:32:24;1.97;;;0.60;;
13641;SDS011;6894;52.196;9.904;2024-01-16T00:34:52;3.03;;;0.70;;
13641;SDS011;6894;52.196;9.904;2024-01-16T00:37:19;1.80;;;0.93;;
13641;SDS011;6894;52.196;9.904;2024-01-16T00:39:46;1.07;;;0.67;;
13641;SDS011;6894;52.196;9.904;2024-01-16T00:42:12;3.03;;;1.53;;
13641;SDS011;6894;52.196;9.904;2024-01-16T00:44:39;3.97;;;0.93;;
13641;SDS011;6894;52.196;9.904;2024-01-16T00:47:06;3.20;;;0.73;;
13641;SDS011;6894;52.196;9.904;2024-01-16T00:49:33;1.93;;;0.63;;
13641;SDS011;6894;52.196;9.904;2024-01-16T00:52:03;3.93;;;0.60;;
13641;SDS011;6894;52.196;9.904;2024-01-16T00:54:30;2.40;;;0.60;;
13641;SDS011;6894;52.196;9.904;2024-01-16T00:56:57;1.43;;;1.00;;
13641;SDS011;6894;52.196;9.904;2024-01-16T00:59:24;1.90;;;0.50;;
13641;SDS011;6894;52.196;9.904;2024-01-16T01:01:51;1.93;;;0.60;;
13641;SDS011;6894;52.196;9.904;2024-01-16T01:04:18;1.03;;;0.80;;
13641;SDS011;6894;52.196;9.904;2024-01-16T01:06:45;1.27;;;0.70;;
13641;SDS011;6894;52.196;9.904;2024-01-16T01:09:13;7.97;;;1.30;;
13641;SDS011;6894;52.196;9.904;2024-01-16T01:11:39;1.57;;;0.90;;
13641;SDS011;6894;52.196;9.904;2024-01-16T01:14:06;1.63;;;0.57;;
13641;SDS011;6894;52.196;9.904;2024-01-16T01:16:33;2.13;;;1.07;;
13641;SDS011;6894;52.196;9.904;2024-01-16T01:19:00;1.93;;;0.80;;
13641;SDS011;6894;52.196;9.904;2024-01-16T01:21:28;5.40;;;2.83;;
13641;SDS011;6894;52.196;9.904;2024-01-16T01:23:55;3.67;;;1.23;;
13641;SDS011;6894;52.196;9.904;2024-01-16T01:26:23;5.07;;;2.20;;
13641;SDS011;6894;52.196;9.904;2024-01-16T01:28:50;2.40;;;0.60;;
13641;SDS011;6894;52.196;9.904;2024-01-16T01:31:17;1.23;;;0.80;;
13641;SDS011;6894;52.196;9.904;2024-01-16T01:33:44;2.10;;;0.93;;
13641;SDS011;6894;52.196;9.904;2024-01-16T01:36:11;5.33;;;2.37;;
13641;SDS011;6894;52.196;9.904;2024-01-16T01:38:37;1.07;;;0.70;;
13641;SDS011;6894;52.196;9.904;2024-01-16T01:41:05;2.40;;;0.80;;
13641;SDS011;6894;52.196;9.904;2024-01-16T01:43:33;1.93;;;0.67;;
13641;SDS011;6894;52.196;9.904;2024-01-16T01:46:06;2.00;;;1.23;;
13641;SDS011;6894;52.196;9.904;2024-01-16T01:48:36;4.67;;;1.70;;
13641;SDS011;6894;52.196;9.904;2024-01-16T01:51:03;5.10;;;3.10;;
13641;SDS011;6894;52.196;9.904;2024-01-16T01:53:30;3.47;;;0.63;;
13641;SDS011;6894;52.196;9.904;2024-01-16T01:55:58;3.10;;;1.00;;
13641;SDS011;6894;52.196;9.904;2024-01-16T01:58:27;2.37;;;0.70;;
13641;SDS011;6894;52.196;9.904;2024-01-16T02:00:56;4.57;;;1.53;;
13641;SDS011;6894;52.196;9.904;2024-01-16T02:03:23;2.53;;;0.80;;
13641;SDS011;6894;52.196;9.904;2024-01-16T02:05:53;1.77;;;0.80;;
13641;SDS011;6894;52.196;9.904;2024-01-16T02:08:21;5.23;;;1.73;;
13641;SDS011;6894;52.196;9.904;2024-01-16T02:10:49;2.47;;;0.80;;
13641;SDS011;6894;52.196;9.904;2024-01-16T02:13:16;1.70;;;0.60;;
13641;SDS011;6894;52.196;9.904;2024-01-16T02:15:48;2.47;;;0.80;;
13641;SDS011;6894;52.196;9.904;2024-01-16T02:18:16;3.37;;;2.30;;
13641;SDS011;6894;52.196;9.904;2024-01-16T02:20:43;3.77;;;1.27;;
13641;SDS011;6894;52.196;9.904;2024-01-16T02:23:10;2.97;;;0.70;;
13641;SDS011;6894;52.196;9.904;2024-01-16T02:25:41;1.57;;;0.57;;
13641;SDS011;6894;52.196;9.904;2024-01-16T02:28:08;1.03;;;0.60;;
13641;SDS011;6894;52.196;9.904;2024-01-16T02:30:35;3.33;;;0.97;;
13641;SDS011;6894;52.196;9.904;2024-01-16T02:33:02;1.90;;;0.87;;
13641;SDS011;6894;52.196;9.904;2024-01-16T02:35:29;3.97;;;1.10;;
13641;SDS011;6894;52.196;9.904;2024-01-16T02:37:56;5.63;;;0.90;;
13641;SDS011;6894;52.196;9.904;2024-01-16T02:40:22;1.30;;;0.70;;
13641;SDS011;6894;52.196;9.904;2024-01-16T02:42:50;4.90;;;1.20;;
13641;SDS011;6894;52.196;9.904;2024-01-16T02:45:17;3.47;;;0.97;;
13641;SDS011;6894;52.196;9.904;2024-01-16T02:47:44;3.50;;;1.00;;
13641;SDS011;6894;52.196;9.904;2024-01-16T02:50:11;1.47;;;0.60;;
13641;SDS011;6894;52.196;9.904;2024-01-16T02:52:38;3.73;;;0.80;;
13641;SDS011;6894;52.196;9.904;2024-01-16T02:55:05;2.47;;;0.70;;
13641;SDS011;6894;52.196;9.904;2024-01-16T02:57:33;1.07;;;0.40;;
13641;SDS011;6894;52.196;9.904;2024-01-16T03:00:01;3.30;;;0.63;;
13641;SDS011;6894;52.196;9.904;2024-01-16T03:02:28;2.70;;;0.70;;
13641;SDS011;6894;52.196;9.904;2024-01-16T03:04:55;4.27;;;0.87;;
13641;SDS011;6894;52.196;9.904;2024-01-16T03:07:22;4.23;;;1.00;;
13641;SDS011;6894;52.196;9.904;2024-01-16T03:09:48;3.67;;;0.80;;
13641;SDS011;6894;52.196;9.904;2024-01-16T03:12:16;1.97;;;0.60;;
13641;SDS011;6894;52.196;9.904;2024-01-16T03:14:42;2.20;;;0.50;;
13641;SDS011;6894;52.196;9.904;2024-01-16T03:17:11;1.33;;;0.50;;
13641;SDS011;6894;52.196;9.904;2024-01-16T03:19:38;4.57;;;0.70;;
13641;SDS011;6894;52.196;9.904;2024-01-16T03:22:04;5.57;;;1.07;;
13641;SDS011;6894;52.196;9.904;2024-01-16T03:24:31;3.97;;;0.50;;
13641;SDS011;6894;52.196;9.904;2024-01-16T03:26:58;4.10;;;0.90;;
13641;SDS011;6894;52.196;9.904;2024-01-16T03:29:25;6.50;;;0.87;;
13641;SDS011;6894;52.196;9.904;2024-01-16T03:31:51;2.30;;;0.57;;
13641;SDS011;6894;52.196;9.904;2024-01-16T03:34:20;3.67;;;0.77;;
13641;SDS011;6894;52.196;9.904;2024-01-16T03:36:47;2.67;;;0.70;;
13641;SDS011;6894;52.196;9.904;2024-01-16T03:39:13;2.23;;;0.77;;
13641;SDS011;6894;52.196;9.904;2024-01-16T03:41:40;4.87;;;1.17;;
13641;SDS011;6894;52.196;9.904;2024-01-16T03:44:07;5.77;;;0.97;;
13641;SDS011;6894;52.196;9.904;2024-01-16T03:46:34;3.87;;;0.80;;
13641;SDS011;6894;52.196;9.904;2024-01-16T03:49:01;2.60;;;0.90;;
13641;SDS011;6894;52.196;9.904;2024-01-16T03:51:29;7.00;;;1.53;;
13641;SDS011;6894;52.196;9.904;2024-01-16T03:53:56;4.53;;;0.90;;
13641;SDS011;6894;52.196;9.904;2024-01-16T03:56:23;3.37;;;1.10;;
13641;SDS011;6894;52.196;9.904;2024-01-16T03:58:49;4.23;;;1.40;;
13641;SDS011;6894;52.196;9.904;2024-01-16T04:01:16;3.47;;;0.80;;
13641;SDS011;6894;52.196;9.904;2024-01-16T04:03:43;2.10;;;1.13;;
13641;SDS011;6894;52.196;9.904;2024-01-16T04:06:16;2.17;;;0.80;;
13641;SDS011;6894;52.196;9.904;2024-01-16T04:08:44;4.10;;;1.50;;
13641;SDS011;6894;52.196;9.904;2024-01-16T04:11:11;5.40;;;1.20;;
13641;SDS011;6894;52.196;9.904;2024-01-16T04:13:38;5.50;;;1.60;;
13641;SDS011;6894;52.196;9.904;2024-01-16T04:16:05;4.43;;;1.20;;
13641;SDS011;6894;52.196;9.904;2024-01-16T04:18:34;4.07;;;1.97;;
13641;SDS011;6894;52.196;9.904;2024-01-16T04:21:02;4.97;;;1.60;;
13641;SDS011;6894;52.196;9.904;2024-01-16T04:23:29;4.00;;;1.10;;
13641;SDS011;6894;52.196;9.904;2024-01-16T04:25:57;8.27;;;2.70;;
13641;SDS011;6894;52.196;9.904;2024-01-16T04:28:24;6.10;;;1.53;;
13641;SDS011;6894;52.196;9.904;2024-01-16T04:30:51;2.67;;;0.97;;
13641;SDS011;6894;52.196;9.904;2024-01-16T04:33:18;2.70;;;1.30;;
13641;SDS011;6894;52.196;9.904;2024-01-16T04:35:45;4.00;;;1.17;;
13641;SDS011;6894;52.196;9.904;2024-01-16T04:38:11;6.70;;;1.47;;
13641;SDS011;6894;52.196;9.904;2024-01-16T04:40:38;3.77;;;1.27;;
13641;SDS011;6894;52.196;9.904;2024-01-16T04:43:08;4.97;;;1.50;;
13641;SDS011;6894;52.196;9.904;2024-01-16T04:45:34;6.00;;;1.20;;
13641;SDS011;6894;52.196;9.904;2024-01-16T04:48:01;5.10;;;1.20;;
13641;SDS011;6894;52.196;9.904;2024-01-16T04:50:28;4.47;;;1.27;;
13641;SDS011;6894;52.196;9.904;2024-01-16T04:52:57;6.27;;;1.10;;
13641;SDS011;6894;52.196;9.904;2024-01-16T04:55:25;6.97;;;1.30;;
13641;SDS011;6894;52.196;9.904;2024-01-16T04:57:53;3.27;;;1.27;;
13641;SDS011;6894;52.196;9.904;2024-01-16T05:00:21;4.73;;;1.30;;
13641;SDS011;6894;52.196;9.904;2024-01-16T05:02:48;2.80;;;1.10;;
13641;SDS011;6894;52.196;9.904;2024-01-16T05:05:16;5.93;;;1.13;;
13641;SDS011;6894;52.196;9.904;2024-01-16T05:07:43;4.47;;;1.70;;
13641;SDS011;6894;52.196;9.904;2024-01-16T05:10:10;6.30;;;1.90;;
13641;SDS011;6894;52.196;9.904;2024-01-16T05:12:38;3.30;;;1.20;;
13641;SDS011;6894;52.196;9.904;2024-01-16T05:15:06;4.40;;;1.77;;
13641;SDS011;6894;52.196;9.904;2024-01-16T05:17:35;2.73;;;1.10;;
13641;SDS011;6894;52.196;9.904;2024-01-16T05:20:02;4.87;;;1.50;;
13641;SDS011;6894;52.196;9.904;2024-01-16T05:22:30;5.47;;;1.93;;
13641;SDS011;6894;52.196;9.904;2024-01-16T05:24:57;3.50;;;1.30;;
13641;SDS011;6894;52.196;9.904;2024-01-16T05:27:25;3.90;;;2.00;;
13641;SDS011;6894;52.196;9.904;2024-01-16T05:29:51;5.33;;;2.37;;
13641;SDS011;6894;52.196;9.904;2024-01-16T05:32:18;3.37;;;1.27;;
13641;SDS011;6894;52.196;9.904;2024-01-16T05:34:46;3.93;;;1.73;;
13641;SDS011;6894;52.196;9.904;2024-01-16T05:37:13;6.10;;;1.83;;
13641;SDS011;6894;52.196;9.904;2024-01-16T05:39:40;8.17;;;1.67;;
13641;SDS011;6894;52.196;9.904;2024-01-16T05:42:06;9.10;;;1.53;;
13641;SDS011;6894;52.196;9.904;2024-01-16T05:44:33;5.83;;;1.67;;
13641;SDS011;6894;52.196;9.904;2024-01-16T05:47:00;7.00;;;1.50;;
13641;SDS011;6894;52.196;9.904;2024-01-16T05:49:27;4.30;;;1.50;;
13641;SDS011;6894;52.196;9.904;2024-01-16T05:51:55;5.13;;;1.60;;
13641;SDS011;6894;52.196;9.904;2024-01-16T05:54:22;2.73;;;1.53;;
13641;SDS011;6894;52.196;9.904;2024-01-16T05:56:48;5.73;;;1.80;;
13641;SDS011;6894;52.196;9.904;2024-01-16T05:59:16;6.00;;;2.27;;
13641;SDS011;6894;52.196;9.904;2024-01-16T06:01:42;6.33;;;2.17;;
13641;SDS011;6894;52.196;9.904;2024-01-16T06:04:09;6.27;;;2.10;;
13641;SDS011;6894;52.196;9.904;2024-01-16T06:06:36;5.27;;;2.27;;
13641;SDS011;6894;52.196;9.904;2024-01-16T06:09:04;7.57;;;1.83;;
13641;SDS011;6894;52.196;9.904;2024-01-16T06:11:31;5.57;;;1.97;;
13641;SDS011;6894;52.196;9.904;2024-01-16T06:13:58;5.37;;;1.50;;
13641;SDS011;6894;52.196;9.904;2024-01-16T06:16:25;3.40;;;1.17;;
13641;SDS011;6894;52.196;9.904;2024-01-16T06:18:52;6.77;;;2.13;;
13641;SDS011;6894;52.196;9.904;2024-01-16T06:21:19;5.67;;;1.57;;
13641;SDS011;6894;52.196;9.904;2024-01-16T06:23:45;4.00;;;2.17;;
13641;SDS011;6894;52.196;9.904;2024-01-16T06:26:13;7.63;;;2.00;;
13641;SDS011;6894;52.196;9.904;2024-01-16T06:28:40;5.07;;;1.80;;
13641;SDS011;6894;52.196;9.904;2024-01-16T06:31:08;11.00;;;2.37;;
13641;SDS011;6894;52.196;9.904;2024-01-16T06:33:35;3.73;;;2.03;;
13641;SDS011;6894;52.196;9.904;2024-01-16T06:36:01;9.67;;;2.43;;
13641;SDS011;6894;52.196;9.904;2024-01-16T06:38:29;6.20;;;2.13;;
13641;SDS011;6894;52.196;9.904;2024-01-16T06:40:56;10.80;;;2.20;;
13641;SDS011;6894;52.196;9.904;2024-01-16T06:43:24;12.23;;;2.47;;
13641;SDS011;6894;52.196;9.904;2024-01-16T06:45:51;9.63;;;2.53;;
13641;SDS011;6894;52.196;9.904;2024-01-16T06:48:18;5.20;;;2.00;;
13641;SDS011;6894;52.196;9.904;2024-01-16T06:50:45;4.60;;;2.33;;
13641;SDS011;6894;52.196;9.904;2024-01-16T06:53:11;5.93;;;2.70;;
13641;SDS011;6894;52.196;9.904;2024-01-16T06:55:38;8.63;;;2.40;;
13641;SDS011;6894;52.196;9.904;2024-01-16T06:58:05;5.80;;;2.30;;
13641;SDS011;6894;52.196;9.904;2024-01-16T07:00:33;7.43;;;2.50;;
13641;SDS011;6894;52.196;9.904;2024-01-16T07:03:00;5.30;;;2.57;;
13641;SDS011;6894;52.196;9.904;2024-01-16T07:05:27;5.03;;;2.37;;
13641;SDS011;6894;52.196;9.904;2024-01-16T07:07:55;8.87;;;3.43;;
13641;SDS011;6894;52.196;9.904;2024-01-16T07:10:21;4.80;;;2.70;;
13641;SDS011;6894;52.196;9.904;2024-01-16T07:12:49;5.60;;;3.13;;
13641;SDS011;6894;52.196;9.904;2024-01-16T07:15:16;6.90;;;2.93;;
13641;SDS011;6894;52.196;9.904;2024-01-16T07:17:44;7.10;;;3.20;;
13641;SDS011;6894;52.196;9.904;2024-01-16T07:20:11;3.87;;;2.87;;
13641;SDS011;6894;52.196;9.904;2024-01-16T07:22:38;7.30;;;3.20;;
13641;SDS011;6894;52.196;9.904;2024-01-16T07:25:05;6.77;;;3.77;;
13641;SDS011;6894;52.196;9.904;2024-01-16T07:27:32;5.07;;;2.93;;
13641;SDS011;6894;52.196;9.904;2024-01-16T07:30:00;6.90;;;3.30;;
13641;SDS011;6894;52.196;9.904;2024-01-16T07:32:26;6.53;;;3.50;;
13641;SDS011;6894;52.196;9.904;2024-01-16T07:34:55;10.03;;;3.77;;
13641;SDS011;6894;52.196;9.904;2024-01-16T07:37:21;5.10;;;3.73;;
13641;SDS011;6894;52.196;9.904;2024-01-16T07:39:48;5.63;;;3.60;;
13641;SDS011;6894;52.196;9.904;2024-01-16T07:42:15;4.27;;;3.03;;
13641;SDS011;6894;52.196;9.904;2024-01-16T07:44:42;5.27;;;3.23;;
13641;SDS011;6894;52.196;9.904;2024-01-16T07:47:08;14.50;;;4.27;;
13641;SDS011;6894;52.196;9.904;2024-01-16T07:49:35;6.03;;;3.70;;
13641;SDS011;6894;52.196;9.904;2024-01-16T07:52:03;7.13;;;3.30;;
13641;SDS011;6894;52.196;9.904;2024-01-16T07:54:30;7.70;;;4.07;;
13641;SDS011;6894;52.196;9.904;2024-01-16T07:56:57;5.17;;;3.33;;
13641;SDS011;6894;52.196;9.904;2024-01-16T07:59:24;4.93;;;3.17;;
13641;SDS011;6894;52.196;9.904;2024-01-16T08:01:51;5.83;;;2.83;;
13641;SDS011;6894;52.196;9.904;2024-01-16T08:04:18;5.47;;;2.90;;
13641;SDS011;6894;52.196;9.904;2024-01-16T08:06:45;6.17;;;3.70;;
13641;SDS011;6894;52.196;9.904;2024-01-16T08:09:14;4.97;;;2.73;;
13641;SDS011;6894;52.196;9.904;2024-01-16T08:11:40;5.03;;;3.20;;
13641;SDS011;6894;52.196;9.904;2024-01-16T08:14:07;9.50;;;3.57;;
13641;SDS011;6894;52.196;9.904;2024-01-16T08:16:34;7.53;;;2.83;;
13641;SDS011;6894;52.196;9.904;2024-01-16T08:19:01;6.17;;;3.17;;
13641;SDS011;6894;52.196;9.904;2024-01-16T08:21:28;5.53;;;2.73;;
13641;SDS011;6894;52.196;9.904;2024-01-16T08:23:55;7.87;;;3.00;;
13641;SDS011;6894;52.196;9.904;2024-01-16T08:26:23;4.23;;;2.80;;
13641;SDS011;6894;52.196;9.904;2024-01-16T08:28:50;5.77;;;2.40;;
13641;SDS011;6894;52.196;9.904;2024-01-16T08:31:17;6.53;;;2.43;;
13641;SDS011;6894;52.196;9.904;2024-01-16T08:33:44;9.33;;;3.67;;
13641;SDS011;6894;52.196;9.904;2024-01-16T08:36:11;7.47;;;2.70;;
13641;SDS011;6894;52.196;9.904;2024-01-16T08:38:38;8.27;;;3.63;;
13641;SDS011;6894;52.196;9.904;2024-01-16T08:41:04;4.77;;;2.60;;
13641;SDS011;6894;52.196;9.904;2024-01-16T08:43:33;9.53;;;2.80;;
13641;SDS011;6894;52.196;9.904;2024-01-16T08:46:00;4.53;;;2.50;;
13641;SDS011;6894;52.196;9.904;2024-01-16T08:48:27;6.57;;;1.93;;
13641;SDS011;6894;52.196;9.904;2024-01-16T08:50:53;9.67;;;3.10;;
13641;SDS011;6894;52.196;9.904;2024-01-16T08:53:20;6.93;;;2.77;;
13641;SDS011;6894;52.196;9.904;2024-01-16T08:55:48;4.43;;;3.40;;
13641;SDS011;6894;52.196;9.904;2024-01-16T08:58:15;8.50;;;3.30;;
13641;SDS011;6894;52.196;9.904;2024-01-16T09:00:43;8.07;;;3.67;;
13641;SDS011;6894;52.196;9.904;2024-01-16T09:03:11;4.63;;;2.83;;
13641;SDS011;6894;52.196;9.904;2024-01-16T09:05:38;4.93;;;3.17;;
13641;SDS011;6894;52.196;9.904;2024-01-16T09:08:05;5.73;;;3.20;;
13641;SDS011;6894;52.196;9.904;2024-01-16T09:10:32;7.23;;;3.77;;
13641;SDS011;6894;52.196;9.904;2024-01-16T09:12:59;4.23;;;2.47;;
13641;SDS011;6894;52.196;9.904;2024-01-16T09:15:25;8.77;;;3.40;;
13641;SDS011;6894;52.196;9.904;2024-01-16T09:17:53;5.03;;;3.20;;
13641;SDS011;6894;52.196;9.904;2024-01-16T09:20:20;5.37;;;3.43;;
13641;SDS011;6894;52.196;9.904;2024-01-16T09:22:47;4.90;;;3.23;;
13641;SDS011;6894;52.196;9.904;2024-01-16T09:25:14;6.30;;;3.47;;
13641;SDS011;6894;52.196;9.904;2024-01-16T09:27:42;5.93;;;2.93;;
13641;SDS011;6894;52.196;9.904;2024-01-16T09:30:08;6.00;;;3.30;;
13641;SDS011;6894;52.196;9.904;2024-01-16T09:32:37;6.53;;;3.20;;
13641;SDS011;6894;52.196;9.904;2024-01-16T09:35:06;4.67;;;3.30;;
13641;SDS011;6894;52.196;9.904;2024-01-16T09:37:34;10.53;;;3.30;;
13641;SDS011;6894;52.196;9.904;2024-01-16T09:40:01;7.73;;;2.67;;
13641;SDS011;6894;52.196;9.904;2024-01-16T09:42:30;6.13;;;3.30;;
13641;SDS011;6894;52.196;9.904;2024-01-16T09:44:57;6.47;;;3.80;;
13641;SDS011;6894;52.196;9.904;2024-01-16T09:47:27;8.27;;;3.80;;
13641;SDS011;6894;52.196;9.904;2024-01-16T09:49:56;6.97;;;3.90;;
13641;SDS011;6894;52.196;9.904;2024-01-16T09:52:26;6.33;;;4.30;;
13641;SDS011;6894;52.196;9.904;2024-01-16T09:54:53;11.37;;;4.60;;
13641;SDS011;6894;52.196;9.904;2024-01-16T09:57:20;7.43;;;3.73;;
13641;SDS011;6894;52.196;9.904;2024-01-16T09:59:51;7.23;;;4.63;;
13641;SDS011;6894;52.196;9.904;2024-01-16T10:02:18;8.57;;;3.90;;
13641;SDS011;6894;52.196;9.904;2024-01-16T10:04:47;4.77;;;3.03;;
13641;SDS011;6894;52.196;9.904;2024-01-16T10:07:14;6.77;;;4.00;;
13641;SDS011;6894;52.196;9.904;2024-01-16T10:09:44;5.73;;;3.57;;
13641;SDS011;6894;52.196;9.904;2024-01-16T10:12:10;7.67;;;4.07;;
13641;SDS011;6894;52.196;9.904;2024-01-16T10:14:38;5.87;;;3.27;;
13641;SDS011;6894;52.196;9.904;2024-01-16T10:17:05;8.97;;;4.67;;
13641;SDS011;6894;52.196;9.904;2024-01-16T10:19:46;6.57;;;3.23;;
13641;SDS011;6894;52.196;9.904;2024-01-16T10:22:19;5.63;;;3.67;;
13641;SDS011;6894;52.196;9.904;2024-01-16T10:24:48;7.03;;;3.53;;
13641;SDS011;6894;52.196;9.904;2024-01-16T10:27:15;9.07;;;3.97;;
13641;SDS011;6894;52.196;9.904;2024-01-16T10:29:48;6.87;;;3.63;;
13641;SDS011;6894;52.196;9.904;2024-01-16T10:32:28;8.57;;;4.30;;
13641;SDS011;6894;52.196;9.904;2024-01-16T10:35:06;6.80;;;3.47;;
13641;SDS011;6894;52.196;9.904;2024-01-16T10:37:41;5.43;;;3.70;;
13641;SDS011;6894;52.196;9.904;2024-01-16T10:40:10;9.13;;;3.83;;
13641;SDS011;6894;52.196;9.904;2024-01-16T10:42:41;5.03;;;3.10;;
13641;SDS011;6894;52.196;9.904;2024-01-16T10:45:08;6.03;;;3.10;;
13641;SDS011;6894;52.196;9.904;2024-01-16T10:47:42;7.53;;;3.73;;
13641;SDS011;6894;52.196;9.904;2024-01-16T10:50:08;7.17;;;3.43;;
13641;SDS011;6894;52.196;9.904;2024-01-16T10:52:35;4.30;;;3.03;;
13641;SDS011;6894;52.196;9.904;2024-01-16T10:55:13;4.10;;;2.77;;
13641;SDS011;6894;52.196;9.904;2024-01-16T10:57:45;6.10;;;3.13;;
13641;SDS011;6894;52.196;9.904;2024-01-16T11:00:14;6.60;;;2.63;;
13641;SDS011;6894;52.196;9.904;2024-01-16T11:02:48;5.73;;;2.73;;
13641;SDS011;6894;52.196;9.904;2024-01-16T11:05:17;4.63;;;2.50;;
13641;SDS011;6894;52.196;9.904;2024-01-16T11:07:44;2.53;;;1.87;;
13641;SDS011;6894;52.196;9.904;2024-01-16T11:10:14;5.03;;;3.30;;
13641;SDS011;6894;52.196;9.904;2024-01-16T11:12:41;5.60;;;3.60;;
13641;SDS011;6894;52.196;9.904;2024-01-16T11:15:08;2.60;;;2.13;;
13641;SDS011;6894;52.196;9.904;2024-01-16T11:17:37;4.17;;;3.03;;
13641;SDS011;6894;52.196;9.904;2024-01-16T11:20:05;4.90;;;2.63;;
13641;SDS011;6894;52.196;9.904;2024-01-16T11:22:35;3.03;;;2.17;;
13641;SDS011;6894;52.196;9.904;2024-01-16T11:25:07;5.63;;;2.83;;
13641;SDS011;6894;52.196;9.904;2024-01-16T11:27:36;6.27;;;2.83;;
13641;SDS011;6894;52.196;9.904;2024-01-16T11:30:03;6.87;;;2.70;;
13641;SDS011;6894;52.196;9.904;2024-01-16T11:32:32;5.20;;;2.60;;
13641;SDS011;6894;52.196;9.904;2024-01-16T11:35:00;4.77;;;2.50;;
13641;SDS011;6894;52.196;9.904;2024-01-16T11:37:28;6.07;;;3.00;;
13641;SDS011;6894;52.196;9.904;2024-01-16T11:42:51;3.33;;;2.37;;
13641;SDS011;6894;52.196;9.904;2024-01-16T11:48:14;7.50;;;3.07;;
13641;SDS011;6894;52.196;9.904;2024-01-16T11:50:41;5.17;;;2.60;;
13641;SDS011;6894;52.196;9.904;2024-01-16T11:53:08;6.33;;;2.97;;
13641;SDS011;6894;52.196;9.904;2024-01-16T11:55:48;8.63;;;3.47;;
13641;SDS011;6894;52.196;9.904;2024-01-16T11:58:30;6.53;;;3.33;;
13641;SDS011;6894;52.196;9.904;2024-01-16T12:01:09;7.90;;;4.40;;
13641;SDS011;6894;52.196;9.904;2024-01-16T12:03:38;6.07;;;3.33;;
13641;SDS011;6894;52.196;9.904;2024-01-16T12:06:04;8.43;;;4.40;;
13641;SDS011;6894;52.196;9.904;2024-01-16T12:08:34;7.63;;;4.37;;
13641;SDS011;6894;52.196;9.904;2024-01-16T12:11:01;5.50;;;3.50;;
13641;SDS011;6894;52.196;9.904;2024-01-16T12:13:30;9.07;;;5.23;;
13641;SDS011;6894;52.196;9.904;2024-01-16T12:16:01;10.63;;;5.37;;
13641;SDS011;6894;52.196;9.904;2024-01-16T12:18:29;8.80;;;5.20;;
13641;SDS011;6894;52.196;9.904;2024-01-16T12:20:56;11.07;;;6.13;;
13641;SDS011;6894;52.196;9.904;2024-01-16T12:23:23;7.70;;;5.77;;
13641;SDS011;6894;52.196;9.904;2024-01-16T12:25:52;9.13;;;6.07;;
13641;SDS011;6894;52.196;9.904;2024-01-16T12:28:20;10.67;;;6.00;;
13641;SDS011;6894;52.196;9.904;2024-01-16T12:30:50;8.77;;;5.93;;
13641;SDS011;6894;52.196;9.904;2024-01-16T12:33:20;14.03;;;7.27;;
13641;SDS011;6894;52.196;9.904;2024-01-16T12:35:48;9.73;;;7.27;;
13641;SDS011;6894;52.196;9.904;2024-01-16T12:38:15;10.60;;;7.33;;
13641;SDS011;6894;52.196;9.904;2024-01-16T12:40:44;10.23;;;8.10;;
13641;SDS011;6894;52.196;9.904;2024-01-16T12:43:13;11.30;;;8.83;;
13641;SDS011;6894;52.196;9.904;2024-01-16T12:45:41;13.17;;;9.73;;
13641;SDS011;6894;52.196;9.904;2024-01-16T12:48:11;13.13;;;10.47;;
13641;SDS011;6894;52.196;9.904;2024-01-16T12:50:38;17.10;;;10.90;;
13641;SDS011;6894;52.196;9.904;2024-01-16T12:53:06;14.57;;;10.70;;
13641;SDS011;6894;52.196;9.904;2024-01-16T12:55:34;15.07;;;11.00;;
13641;SDS011;6894;52.196;9.904;2024-01-16T12:58:12;12.57;;;9.83;;
13641;SDS011;6894;52.196;9.904;2024-01-16T13:00:39;16.03;;;11.30;;
13641;SDS011;6894;52.196;9.904;2024-01-16T13:03:06;15.70;;;10.67;;
13641;SDS011;6894;52.196;9.904;2024-01-16T13:05:35;14.90;;;11.50;;
13641;SDS011;6894;52.196;9.904;2024-01-16T13:08:02;19.63;;;12.70;;
13641;SDS011;6894;52.196;9.904;2024-01-16T13:10:29;17.03;;;11.47;;
13641;SDS011;6894;52.196;9.904;2024-01-16T13:13:10;15.23;;;12.83;;
13641;SDS011;6894;52.196;9.904;2024-01-16T13:15:38;13.90;;;11.80;;
13641;SDS011;6894;52.196;9.904;2024-01-16T13:18:05;16.93;;;11.70;;
13641;SDS011;6894;52.196;9.904;2024-01-16T13:20:32;16.63;;;11.87;;
13641;SDS011;6894;52.196;9.904;2024-01-16T13:23:00;14.07;;;11.10;;
13641;SDS011;6894;52.196;9.904;2024-01-16T13:25:28;17.73;;;12.60;;
13641;SDS011;6894;52.196;9.904;2024-01-16T13:27:55;22.20;;;15.53;;
13641;SDS011;6894;52.196;9.904;2024-01-16T13:30:21;18.50;;;12.10;;
13641;SDS011;6894;52.196;9.904;2024-01-16T13:32:49;16.00;;;11.30;;
13641;SDS011;6894;52.196;9.904;2024-01-16T13:35:15;13.23;;;10.10;;
13641;SDS011;6894;52.196;9.904;2024-01-16T13:37:42;16.03;;;10.90;;
13641;SDS011;6894;52.196;9.904;2024-01-16T13:40:10;13.73;;;10.20;;
13641;SDS011;6894;52.196;9.904;2024-01-16T13:42:40;14.70;;;9.97;;
13641;SDS011;6894;52.196;9.904;2024-01-16T13:45:07;13.83;;;10.03;;
13641;SDS011;6894;52.196;9.904;2024-01-16T13:47:35;10.17;;;9.10;;
13641;SDS011;6894;52.196;9.904;2024-01-16T13:50:04;10.10;;;7.60;;
13641;SDS011;6894;52.196;9.904;2024-01-16T13:52:31;14.13;;;12.70;;
13641;SDS011;6894;52.196;9.904;2024-01-16T13:54:58;8.27;;;7.07;;
13641;SDS011;6894;52.196;9.904;2024-01-16T13:57:29;11.63;;;8.03;;
13641;SDS011;6894;52.196;9.904;2024-01-16T13:59:56;11.40;;;6.73;;
13641;SDS011;6894;52.196;9.904;2024-01-16T14:02:23;9.70;;;7.53;;
13641;SDS011;6894;52.196;9.904;2024-01-16T14:04:50;8.20;;;6.57;;
13641;SDS011;6894;52.196;9.904;2024-01-16T14:07:17;10.00;;;6.17;;
13641;SDS011;6894;52.196;9.904;2024-01-16T14:09:44;8.00;;;5.73;;
13641;SDS011;6894;52.196;9.904;2024-01-16T14:12:11;7.53;;;5.27;;
13641;SDS011;6894;52.196;9.904;2024-01-16T14:14:39;7.33;;;5.20;;
13641;SDS011;6894;52.196;9.904;2024-01-16T14:17:07;7.57;;;5.03;;
13641;SDS011;6894;52.196;9.904;2024-01-16T14:19:34;12.23;;;5.80;;
13641;SDS011;6894;52.196;9.904;2024-01-16T14:22:01;10.10;;;5.50;;
13641;SDS011;6894;52.196;9.904;2024-01-16T14:24:28;9.43;;;4.87;;
13641;SDS011;6894;52.196;9.904;2024-01-16T14:26:55;8.80;;;5.20;;
13641;SDS011;6894;52.196;9.904;2024-01-16T14:29:22;12.67;;;5.07;;
13641;SDS011;6894;52.196;9.904;2024-01-16T14:31:50;9.97;;;4.77;;
13641;SDS011;6894;52.196;9.904;2024-01-16T14:34:17;7.73;;;4.43;;
13641;SDS011;6894;52.196;9.904;2024-01-16T14:36:44;6.50;;;4.40;;
13641;SDS011;6894;52.196;9.904;2024-01-16T14:39:11;9.40;;;5.40;;
13641;SDS011;6894;52.196;9.904;2024-01-16T14:41:42;7.17;;;4.17;;
13641;SDS011;6894;52.196;9.904;2024-01-16T14:44:09;8.37;;;4.70;;
13641;SDS011;6894;52.196;9.904;2024-01-16T14:46:37;10.73;;;4.37;;
13641;SDS011;6894;52.196;9.904;2024-01-16T14:49:09;6.63;;;4.23;;
13641;SDS011;6894;52.196;9.904;2024-01-16T14:51:36;10.00;;;5.57;;
13641;SDS011;6894;52.196;9.904;2024-01-16T14:54:03;12.47;;;6.20;;
13641;SDS011;6894;52.196;9.904;2024-01-16T14:56:30;8.60;;;3.90;;
13641;SDS011;6894;52.196;9.904;2024-01-16T14:58:57;11.90;;;6.03;;
13641;SDS011;6894;52.196;9.904;2024-01-16T15:01:24;11.13;;;5.33;;
13641;SDS011;6894;52.196;9.904;2024-01-16T15:03:51;11.13;;;4.90;;
13641;SDS011;6894;52.196;9.904;2024-01-16T15:06:19;8.40;;;4.50;;